Time;durP1;ratioP1;P1;durP2;ratioP2;P2;SDS_P1;SDS_P2;PMS_P1;PMS_P2;Temp;Humidity;BMP_temperature;BMP_pressure;BME280_temperature;BME280_humidity;BME280_pressure;Samples;Min_cycle;Max_cycle;Signal;HPM_P1;HPM_P2
2021/03/30 00:00:11;;;;;;;21.35;16.93;;;;;;;8.24;59.37;101933.26;1790646;79;21288;-64
2021/03/30 00:02:39;;;;;;;26.80;18.48;;;;;;;8.23;59.35;101940.66;1791818;80;21139;-55
2021/03/30 00:05:09;;;;;;;22.98;17.32;;;;;;;8.22;59.46;101938.02;1778473;80;21562;-63
2021/03/30 00:07:36;;;;;;;25.80;17.45;;;;;;;8.19;59.55;101938.41;1778091;80;21151;-64
2021/03/30 00:10:07;;;;;;;23.00;17.20;;;;;;;8.17;59.48;101935.28;1789834;80;21259;-55
2021/03/30 00:12:35;;;;;;;24.20;17.48;;;;;;;8.12;59.47;101940.43;1792686;79;21155;-63
2021/03/30 00:15:06;;;;;;;24.23;16.95;;;;;;;8.08;59.63;101939.90;1779568;80;21131;-64
2021/03/30 00:17:34;;;;;;;25.12;18.98;;;;;;;7.97;59.81;101936.13;1769764;80;21134;-64
2021/03/30 00:20:12;;;;;;;27.22;18.55;;;;;;;7.93;59.92;101941.74;1777267;80;21159;-55
2021/03/30 00:22:42;;;;;;;23.57;17.02;;;;;;;7.93;59.94;101931.70;1792825;80;21677;-55
2021/03/30 00:25:12;;;;;;;22.10;16.02;;;;;;;7.95;59.87;101937.86;1784205;80;21277;-64
2021/03/30 00:27:39;;;;;;;23.03;17.43;;;;;;;7.89;59.88;101937.27;1763755;80;21147;-64
2021/03/30 00:30:09;;;;;;;22.60;17.23;;;;;;;7.87;59.93;101941.59;1762022;80;21551;-63
2021/03/30 00:32:37;;;;;;;22.73;16.77;;;;;;;7.82;59.92;101945.83;1761610;81;21111;-64
2021/03/30 00:35:07;;;;;;;22.45;17.60;;;;;;;7.77;59.81;101941.80;1777199;80;21184;-64
2021/03/30 00:37:36;;;;;;;24.47;16.77;;;;;;;7.71;59.79;101946.48;1792175;80;21131;-55
2021/03/30 00:40:08;;;;;;;23.50;16.42;;;;;;;7.71;59.79;101950.41;1790634;80;21300;-55
2021/03/30 00:42:35;;;;;;;21.75;16.50;;;;;;;7.72;59.79;101947.35;1789563;80;21467;-64
2021/03/30 00:45:05;;;;;;;29.12;17.10;;;;;;;7.71;59.83;101950.41;1789333;80;21563;-54
2021/03/30 00:47:34;;;;;;;24.27;17.10;;;;;;;7.69;59.78;101949.48;1770550;80;21547;-64
2021/03/30 00:50:03;;;;;;;21.57;16.65;;;;;;;7.68;59.85;101946.41;1763528;80;21143;-64
2021/03/30 00:52:31;;;;;;;25.30;17.67;;;;;;;7.70;59.83;101949.05;1769364;80;21115;-54
2021/03/30 00:55:08;;;;;;;34.25;28.38;;;;;;;7.73;59.87;101943.44;1809090;77;28518;-52
2021/03/30 00:57:37;;;;;;;24.32;20.08;;;;;;;7.71;59.93;101948.20;1761333;81;21130;-62
2021/03/30 01:00:07;;;;;;;26.33;19.17;;;;;;;7.70;59.86;101944.70;1761759;80;21612;-54
2021/03/30 01:02:38;;;;;;;23.05;17.48;;;;;;;7.66;59.82;101953.75;1743938;81;21139;-53
2021/03/30 01:05:07;;;;;;;25.23;17.67;;;;;;;7.62;59.83;101949.27;1746305;80;21456;-55
2021/03/30 01:07:37;;;;;;;24.43;18.37;;;;;;;7.57;59.78;101948.73;1761941;81;21522;-64
2021/03/30 01:10:16;;;;;;;;;;;;;;;7.55;59.69;101954.80;1762255;80;21099;-54
2021/03/30 01:13:08;;;;;;;23.07;17.07;;;;;;;7.52;59.84;101952.09;1761669;81;20230;-54
2021/03/30 01:15:57;;;;;;;23.50;17.57;;;;;;;7.50;59.73;101956.00;1760364;81;21143;-53
2021/03/30 01:18:44;;;;;;;23.80;17.20;;;;;;;7.43;59.87;101951.00;1755022;81;21158;-54
2021/03/30 01:21:45;;;;;;;25.08;18.52;;;;;;;7.44;59.90;101953.22;1739003;81;21155;-64
2021/03/30 01:24:23;;;;;;;24.45;17.35;;;;;;;7.44;59.96;101955.39;1754647;81;21261;-54
2021/03/30 01:26:58;;;;;;;25.35;17.82;;;;;;;7.43;59.94;101953.62;1761685;81;21095;-64
2021/03/30 01:29:47;;;;;;;26.20;18.82;;;;;;;7.41;59.94;101955.75;1755875;81;21562;-55
2021/03/30 01:32:32;;;;;;;25.85;18.73;;;;;;;7.57;59.53;101953.97;1762038;81;21562;-55
2021/03/30 01:35:00;;;;;;;25.88;18.67;;;;;;;7.57;59.59;101957.03;1767656;80;21690;-55
2021/03/30 01:37:28;;;;;;;24.50;18.10;;;;;;;7.58;59.45;101960.98;1742534;81;21601;-54
2021/03/30 01:39:58;;;;;;;27.07;19.02;;;;;;;7.57;59.36;101962.27;1761090;80;21153;-54
2021/03/30 01:42:29;;;;;;;29.20;19.80;;;;;;;7.51;59.39;101956.43;1761616;81;21151;-63
2021/03/30 01:44:56;;;;;;;25.65;18.50;;;;;;;7.52;59.38;101957.34;1762126;81;21154;-55
2021/03/30 01:47:24;;;;;;;28.32;19.37;;;;;;;7.51;59.31;101955.13;1751646;80;21293;-64
2021/03/30 01:49:52;;;;;;;24.40;18.50;;;;;;;7.52;59.30;101950.78;1713767;82;21152;-64
2021/03/30 01:52:19;;;;;;;26.50;19.50;;;;;;;7.53;59.31;101956.05;1753529;81;21581;-54
2021/03/30 01:54:48;;;;;;;28.85;19.07;;;;;;;7.54;59.31;101955.64;1762001;80;21200;-54
2021/03/30 01:57:26;;;;;;;26.00;18.15;;;;;;;7.54;59.28;101956.52;1736296;82;21518;-55
2021/03/30 01:59:54;;;;;;;26.97;19.45;;;;;;;7.55;59.25;101953.48;1740512;80;21293;-64
2021/03/30 02:02:23;;;;;;;28.85;19.77;;;;;;;7.56;59.24;101959.19;1762048;81;21146;-63
2021/03/30 02:04:50;;;;;;;27.22;19.45;;;;;;;7.55;59.21;101953.05;1742387;81;21103;-54
2021/03/30 02:07:21;;;;;;;25.23;19.65;;;;;;;7.53;59.17;101946.88;1752371;81;21126;-55
2021/03/30 02:09:53;;;;;;;25.97;19.75;;;;;;;7.54;59.01;101953.02;1760506;81;21174;-55
2021/03/30 02:12:20;;;;;;;28.65;20.37;;;;;;;7.53;59.11;101963.91;1760670;81;21534;-54
2021/03/30 02:14:49;;;;;;;26.25;18.98;;;;;;;7.50;59.07;101966.48;1751724;81;21154;-64
2021/03/30 02:17:28;;;;;;;25.77;19.67;;;;;;;7.47;58.91;101966.80;1750909;81;21107;-55
2021/03/30 02:20:10;;;;;;;27.57;19.37;;;;;;;7.41;58.95;101975.41;1760717;81;21150;-63
2021/03/30 02:22:54;;;;;;;26.85;19.42;;;;;;;7.38;58.98;101978.81;1760964;81;21142;-63
2021/03/30 02:25:23;;;;;;;26.23;18.87;;;;;;;7.33;58.92;101975.61;1758284;80;21150;-63
2021/03/30 02:27:53;;;;;;;28.90;18.87;;;;;;;7.29;58.95;101982.48;1761257;81;21593;-64
2021/03/30 02:30:24;;;;;;;27.35;20.62;;;;;;;7.13;59.39;101982.49;1761784;81;21159;-54
2021/03/30 02:32:51;;;;;;;27.20;20.57;;;;;;;7.22;59.18;101985.38;1752789;81;21154;-54
2021/03/30 02:35:19;;;;;;;28.90;20.37;;;;;;;7.22;59.28;101987.99;1731588;81;21347;-64
2021/03/30 02:37:48;;;;;;;28.65;20.90;;;;;;;7.10;59.54;101983.72;1705589;81;21162;-54
2021/03/30 02:40:16;;;;;;;27.85;20.43;;;;;;;7.22;59.25;101983.19;1761447;81;21166;-64
2021/03/30 02:42:46;;;;;;;29.67;21.70;;;;;;;7.23;59.28;101990.20;1744563;81;21312;-64
2021/03/30 02:45:16;;;;;;;;;;;;;;;7.17;59.61;101993.95;1738137;81;21154;-63
2021/03/30 02:47:45;;;;;;;25.45;19.12;;;;;;;7.07;59.97;101994.09;1724454;83;20146;-55
2021/03/30 02:50:14;;;;;;;29.50;21.52;;;;;;;7.06;60.01;101997.59;1682444;84;21729;-54
2021/03/30 02:52:42;;;;;;;29.57;21.42;;;;;;;7.04;59.95;101994.91;1685509;84;21155;-54
2021/03/30 02:55:12;;;;;;;28.65;21.10;;;;;;;7.02;59.96;101997.04;1700319;83;21241;-63
2021/03/30 02:57:41;;;;;;;31.60;23.95;;;;;;;7.04;59.93;101997.97;1695815;84;21164;-61
2021/03/30 03:00:11;;;;;;;31.57;21.95;;;;;;;7.02;59.96;102000.97;1695129;83;21285;-64
2021/03/30 03:02:38;;;;;;;28.17;20.82;;;;;;;7.03;59.97;101997.50;1683643;85;21155;-54
2021/03/30 03:05:08;;;;;;;35.35;23.25;;;;;;;7.21;59.47;102005.86;1753235;80;21524;-63
2021/03/30 03:07:38;;;;;;;34.67;24.55;;;;;;;7.21;59.31;102003.23;1728006;82;21171;-54
2021/03/30 03:10:08;;;;;;;32.67;23.47;;;;;;;6.99;60.08;102006.58;1738390;81;21301;-55
2021/03/30 03:12:38;;;;;;;29.20;21.77;;;;;;;6.98;60.30;102009.14;1729976;82;21139;-64
2021/03/30 03:15:11;;;;;;;33.53;23.10;;;;;;;7.07;60.00;102009.41;1726414;82;21584;-63
2021/03/30 03:17:41;;;;;;;33.50;22.90;;;;;;;7.06;59.92;102015.48;1743723;82;21127;-54
2021/03/30 03:20:10;;;;;;;35.08;24.32;;;;;;;7.05;60.16;102008.47;1728326;82;21213;-54
2021/03/30 03:22:38;;;;;;;32.67;22.00;;;;;;;7.07;60.07;102008.50;1740501;82;21163;-63
2021/03/30 03:25:09;;;;;;;29.95;21.97;;;;;;;7.11;60.18;102014.30;1754537;81;21140;-55
2021/03/30 03:27:37;;;;;;;30.75;21.55;;;;;;;7.11;60.22;102006.03;1753592;81;21166;-56
2021/03/30 03:30:10;;;;;;;34.38;22.90;;;;;;;7.11;60.08;102011.27;1756235;80;21178;-55
2021/03/30 03:32:39;;;;;;;31.70;22.45;;;;;;;7.13;60.14;102013.52;1755046;81;21265;-54
2021/03/30 03:35:10;;;;;;;31.52;22.58;;;;;;;7.17;60.11;102014.47;1754647;82;21124;-55
2021/03/30 03:38:05;;;;;;;31.87;22.25;;;;;;;7.22;59.97;102011.56;1735905;81;21143;-54
2021/03/30 03:40:33;;;;;;;34.05;21.80;;;;;;;7.42;59.59;102008.61;1712975;82;21600;-55
2021/03/30 03:43:01;;;;;;;40.05;24.35;;;;;;;7.31;59.87;102012.23;1708425;84;21699;-54
2021/03/30 03:45:29;;;;;;;31.40;22.50;;;;;;;7.31;59.96;102016.59;1706376;84;21142;-55
2021/03/30 03:47:57;;;;;;;31.65;22.40;;;;;;;7.26;59.70;102016.48;1709993;84;21156;-55
2021/03/30 03:50:24;;;;;;;35.95;23.42;;;;;;;7.17;59.98;102016.22;1709168;84;21593;-54
2021/03/30 03:52:54;;;;;;;32.33;21.87;;;;;;;7.16;60.15;102014.00;1708313;84;21192;-54
2021/03/30 03:55:22;;;;;;;36.73;22.75;;;;;;;7.19;60.16;102016.71;1702508;83;21174;-54
2021/03/30 03:57:52;;;;;;;30.20;21.65;;;;;;;7.17;60.17;102013.16;1669906;84;21541;-54
2021/03/30 04:00:21;;;;;;;27.73;20.85;;;;;;;7.16;60.05;102015.31;1708475;84;21234;-55
2021/03/30 04:02:59;;;;;;;28.15;22.05;;;;;;;7.17;60.09;102022.77;1709410;84;21160;-54
2021/03/30 04:05:44;;;;;;;30.50;21.35;;;;;;;7.14;60.07;102023.55;1706557;84;21616;-55
2021/03/30 04:08:15;;;;;;;29.20;21.12;;;;;;;7.11;60.14;102024.77;1687142;84;21727;-53
2021/03/30 04:10:46;;;;;;;31.30;20.40;;;;;;;7.19;60.09;102024.56;1663801;86;21324;-53
2021/03/30 04:13:17;;;;;;;31.73;21.10;;;;;;;7.14;60.30;102024.86;1663535;85;21322;-54
2021/03/30 04:15:44;;;;;;;28.67;21.62;;;;;;;7.14;60.34;102025.77;1664041;86;21613;-54
2021/03/30 04:18:13;;;;;;;32.50;21.60;;;;;;;7.32;60.18;102024.92;1663525;86;21180;-54
2021/03/30 04:20:41;;;;;;;28.73;21.50;;;;;;;7.24;60.48;102021.66;1663797;86;21597;-54
2021/03/30 04:23:09;;;;;;;30.97;21.87;;;;;;;7.28;60.60;102026.58;1632543;86;21122;-54
2021/03/30 04:25:37;;;;;;;30.68;22.02;;;;;;;7.40;60.86;102039.99;1660343;86;21129;-54
2021/03/30 04:28:05;;;;;;;32.78;24.57;;;;;;;7.45;60.74;102040.14;1663132;86;21826;-55
2021/03/30 04:30:32;;;;;;;32.65;25.12;;;;;;;7.49;60.72;102042.41;1663675;86;22292;-54
2021/03/30 04:33:01;;;;;;;35.17;23.83;;;;;;;7.53;60.78;102044.27;1645432;85;21747;-54
2021/03/30 04:35:29;;;;;;;32.08;24.52;;;;;;;7.57;60.85;102045.69;1630726;87;21142;-55
2021/03/30 04:37:57;;;;;;;34.08;24.67;;;;;;;7.60;60.91;102047.52;1637893;87;21585;-63
2021/03/30 04:40:24;;;;;;;34.10;26.33;;;;;;;7.62;60.88;102042.30;1650640;84;21340;-64
2021/03/30 04:42:52;;;;;;;37.70;27.02;;;;;;;7.66;61.13;102049.00;1706676;84;21568;-64
2021/03/30 04:45:20;;;;;;;40.67;29.40;;;;;;;7.74;61.31;102047.44;1706215;83;21618;-64
2021/03/30 04:47:48;;;;;;;40.63;27.15;;;;;;;7.85;61.54;102052.98;1706942;84;21572;-64
2021/03/30 04:50:16;;;;;;;43.02;30.10;;;;;;;7.93;61.52;102056.23;1703513;83;21189;-55
2021/03/30 04:52:44;;;;;;;41.08;27.85;;;;;;;7.99;61.68;102055.05;1706659;84;21126;-55
2021/03/30 04:55:14;;;;;;;40.90;27.37;;;;;;;8.07;61.73;102064.00;1700755;82;21135;-55
2021/03/30 04:57:42;;;;;;;45.12;28.80;;;;;;;8.13;61.53;102061.98;1701117;82;21179;-64
2021/03/30 05:00:12;;;;;;;36.75;25.55;;;;;;;8.10;61.36;102061.46;1699901;82;21340;-55
2021/03/30 05:02:40;;;;;;;35.20;24.45;;;;;;;8.18;61.22;102057.30;1695281;82;21161;-54
2021/03/30 05:05:09;;;;;;;34.75;25.90;;;;;;;8.12;61.12;102065.45;1700295;82;21157;-55
2021/03/30 05:07:37;;;;;;;32.48;24.10;;;;;;;8.10;61.25;102062.77;1700496;82;21165;-55
2021/03/30 05:10:07;;;;;;;33.65;24.47;;;;;;;8.14;61.19;102064.63;1705985;82;21592;-63
2021/03/30 05:12:35;;;;;;;32.63;23.65;;;;;;;8.16;61.26;102068.62;1705347;84;21400;-55
2021/03/30 05:15:05;;;;;;;31.52;24.92;;;;;;;8.17;61.48;102065.11;1705228;84;21638;-55
2021/03/30 05:17:35;;;;;;;37.70;26.07;;;;;;;8.22;61.59;102062.19;1703034;83;21126;-63
2021/03/30 05:20:05;;;;;;;36.50;27.07;;;;;;;8.39;61.41;102057.34;1706202;83;21161;-64
2021/03/30 05:22:32;;;;;;;31.20;23.65;;;;;;;8.38;61.82;102064.78;1707026;84;21288;-55
2021/03/30 05:25:02;;;;;;;35.15;27.27;;;;;;;8.65;62.10;102065.39;1706657;82;21628;-64
2021/03/30 05:27:30;;;;;;;35.52;26.25;;;;;;;8.85;62.27;102057.55;1704377;84;21145;-64
2021/03/30 05:29:57;;;;;;;35.08;27.30;;;;;;;9.01;62.28;102059.20;1706073;82;21312;-55
2021/03/30 05:32:25;;;;;;;37.83;26.85;;;;;;;9.17;62.50;102056.02;1699557;84;21144;-64
2021/03/30 05:34:54;;;;;;;38.20;27.75;;;;;;;9.32;62.84;102055.44;1703375;83;21208;-64
2021/03/30 05:37:22;;;;;;;43.85;30.10;;;;;;;9.39;63.15;102061.72;1705979;84;21157;-55
2021/03/30 05:39:50;;;;;;;40.48;29.07;;;;;;;9.66;63.20;102058.73;1708445;84;21185;-64
2021/03/30 05:42:19;;;;;;;41.63;30.37;;;;;;;9.84;63.18;102059.90;1712486;84;21169;-56
2021/03/30 05:44:47;;;;;;;43.70;31.10;;;;;;;10.01;63.37;102054.06;1712020;82;21556;-56
2021/03/30 05:47:16;;;;;;;40.52;29.45;;;;;;;10.15;63.27;102055.19;1711240;83;21129;-55
2021/03/30 05:49:45;;;;;;;37.83;28.57;;;;;;;10.14;64.49;102062.62;1712310;82;21945;-60
2021/03/30 05:52:20;;;;;;;38.95;28.95;;;;;;;10.38;64.36;102066.50;1711752;82;21816;-64
2021/03/30 05:54:47;;;;;;;40.58;30.23;;;;;;;10.57;64.22;102066.38;1711041;82;21126;-56
2021/03/30 05:57:17;;;;;;;40.90;29.07;;;;;;;10.80;64.12;102072.42;1710957;84;21200;-55
2021/03/30 05:59:48;;;;;;;33.38;25.30;;;;;;;10.90;64.27;102066.39;1709973;84;21201;-57
2021/03/30 06:02:24;;;;;;;37.40;29.05;;;;;;;11.06;64.81;102075.38;1722221;82;21318;-56
2021/03/30 06:04:52;;;;;;;40.45;30.65;;;;;;;11.28;64.44;102068.62;1706556;84;21599;-56
2021/03/30 06:07:20;;;;;;;40.85;31.02;;;;;;;11.49;64.50;102076.34;1704084;84;21549;-56
2021/03/30 06:09:48;;;;;;;35.33;28.98;;;;;;;11.64;64.22;102075.61;1688260;84;21315;-56
2021/03/30 06:12:16;;;;;;;38.25;30.25;;;;;;;11.64;64.81;102082.66;1688482;85;21632;-56
2021/03/30 06:14:46;;;;;;;39.15;30.27;;;;;;;11.89;64.36;102082.02;1709355;82;21239;-57
2021/03/30 06:17:16;;;;;;;36.98;29.63;;;;;;;12.07;64.00;102083.10;1712033;83;21173;-56
2021/03/30 06:19:52;;;;;;;35.83;28.50;;;;;;;12.18;63.87;102088.47;1712021;82;21318;-56
2021/03/30 06:22:25;;;;;;;35.05;29.80;;;;;;;12.27;63.50;102087.65;1712174;83;21651;-56
2021/03/30 06:24:54;;;;;;;34.05;27.73;;;;;;;12.34;63.35;102087.73;1712179;82;21177;-56
2021/03/30 06:27:26;;;;;;;36.23;27.75;;;;;;;12.42;63.29;102085.14;1648559;87;21581;-56
2021/03/30 06:29:58;;;;;;;35.03;28.57;;;;;;;12.56;63.52;102088.33;1636896;86;21141;-56
2021/03/30 06:32:27;;;;;;;36.08;27.32;;;;;;;12.68;63.60;102079.12;1669704;86;21136;-56
2021/03/30 06:35:10;;;;;;;36.53;29.85;;;;;;;12.90;63.97;102080.14;1676034;86;21220;-56
2021/03/30 06:37:40;;;;;;;31.02;24.60;;;;;;;13.07;63.71;102079.34;1675836;86;21301;-56
2021/03/30 06:40:22;;;;;;;28.83;24.00;;;;;;;13.26;63.27;102081.63;1674899;84;21619;-56
2021/03/30 06:42:54;;;;;;;32.78;25.23;;;;;;;13.44;62.95;102082.16;1597531;88;21175;-57
2021/03/30 06:45:26;;;;;;;31.50;24.80;;;;;;;13.62;62.92;102080.45;1620621;87;21163;-56
2021/03/30 06:48:00;;;;;;;28.40;23.67;;;;;;;13.68;62.69;102079.16;1636947;88;21614;-56
2021/03/30 06:50:37;;;;;;;28.95;23.77;;;;;;;13.73;62.73;102080.47;1655189;85;21666;-56
2021/03/30 06:53:17;;;;;;;27.60;22.62;;;;;;;14.00;62.21;102082.27;1620529;88;21207;-57
2021/03/30 06:55:52;;;;;;;27.70;22.15;;;;;;;14.00;62.32;102092.86;1658428;86;21362;-57
2021/03/30 06:58:22;;;;;;;27.32;22.55;;;;;;;14.21;61.66;102091.98;1673888;86;21175;-56
2021/03/30 07:00:50;;;;;;;24.60;21.23;;;;;;;14.23;61.52;102086.25;1675626;86;21167;-56
2021/03/30 07:03:21;;;;;;;25.68;21.15;;;;;;;14.40;61.17;102086.23;1675659;86;21175;-57
2021/03/30 07:05:53;;;;;;;23.45;19.60;;;;;;;14.55;60.62;102097.70;1664050;85;21173;-56
2021/03/30 07:08:22;;;;;;;28.27;18.87;;;;;;;14.63;60.13;102093.70;1675077;86;21151;-56
2021/03/30 07:10:53;;;;;;;23.67;19.23;;;;;;;14.61;59.20;102096.34;1675333;86;21159;-57
2021/03/30 07:13:23;;;;;;;25.27;19.07;;;;;;;14.56;58.83;102105.64;1675900;85;21822;-56
2021/03/30 07:15:57;;;;;;;22.65;17.42;;;;;;;14.52;59.02;102110.50;1663623;85;21195;-56
2021/03/30 07:18:38;;;;;;;23.73;17.77;;;;;;;14.55;58.93;102112.28;1675319;86;21611;-57
2021/03/30 07:21:13;;;;;;;22.35;18.40;;;;;;;14.61;59.03;102118.87;1675753;86;21223;-57
2021/03/30 07:23:45;;;;;;;21.52;18.10;;;;;;;14.67;58.86;102123.30;1673441;86;21203;-57
2021/03/30 07:26:22;;;;;;;21.90;18.52;;;;;;;14.69;58.52;102119.78;1675622;84;21303;-54
2021/03/30 07:29:05;;;;;;;20.15;16.57;;;;;;;14.71;58.04;102119.80;1646831;87;21170;-55
2021/03/30 07:32:00;;;;;;;20.57;16.70;;;;;;;14.76;57.25;102118.02;1663578;86;21316;-55
2021/03/30 07:34:59;;;;;;;20.90;17.15;;;;;;;14.76;56.29;102120.67;1646946;87;21591;-56
2021/03/30 07:37:39;;;;;;;21.45;17.02;;;;;;;14.66;57.20;102121.08;1662701;86;21154;-55
2021/03/30 07:40:10;;;;;;;20.75;16.52;;;;;;;14.72;56.96;102127.73;1647975;87;21185;-55
2021/03/30 07:42:40;;;;;;;25.97;18.37;;;;;;;14.84;57.04;102120.64;1649714;87;21198;-55
2021/03/30 07:45:10;;;;;;;;;;;;;;;14.91;57.85;102120.17;1651026;87;21614;-55
2021/03/30 07:47:38;;;;;;;20.55;16.05;;;;;;;15.26;57.86;102117.84;1632668;87;20168;-55
2021/03/30 07:50:10;;;;;;;21.95;17.45;;;;;;;15.60;57.75;102115.05;1594493;89;21234;-55
2021/03/30 07:52:46;;;;;;;19.85;15.60;;;;;;;15.93;57.29;102120.17;1616380;87;21155;-56
2021/03/30 07:55:27;;;;;;;20.15;16.48;;;;;;;16.19;55.69;102119.98;1648648;87;21162;-56
2021/03/30 07:58:16;;;;;;;22.02;17.15;;;;;;;16.55;55.24;102117.92;1678677;85;21175;-56
2021/03/30 08:00:47;;;;;;;21.42;16.65;;;;;;;16.93;54.82;102114.41;1667218;85;21350;-56
2021/03/30 08:03:27;;;;;;;18.82;15.55;;;;;;;17.20;54.19;102116.37;1662215;86;21155;-56
2021/03/30 08:06:18;;;;;;;22.00;15.50;;;;;;;17.41;53.96;102113.88;1636051;86;21618;-55
2021/03/30 08:09:12;;;;;;;17.85;14.65;;;;;;;17.53;53.30;102113.69;1663186;86;21571;-56
2021/03/30 08:11:49;;;;;;;16.50;13.65;;;;;;;17.73;52.37;102103.66;1662977;85;21200;-56
2021/03/30 08:14:23;;;;;;;18.32;14.95;;;;;;;17.96;52.45;102106.86;1663354;86;21193;-56
2021/03/30 08:16:56;;;;;;;17.40;13.25;;;;;;;18.15;52.31;102103.92;1663177;85;21162;-56
2021/03/30 08:19:27;;;;;;;15.53;13.00;;;;;;;18.50;52.32;102101.55;1666037;86;21174;-56
2021/03/30 08:21:58;;;;;;;16.45;13.85;;;;;;;18.95;50.83;102098.92;1659175;86;21295;-56
2021/03/30 08:24:28;;;;;;;14.83;12.58;;;;;;;19.25;51.45;102096.55;1660235;86;21605;-56
2021/03/30 08:26:55;;;;;;;17.50;14.50;;;;;;;19.46;49.50;102101.01;1661426;86;21558;-56
2021/03/30 08:29:36;;;;;;;15.03;11.63;;;;;;;19.84;49.67;102101.05;1661470;86;21676;-56
2021/03/30 08:32:06;;;;;;;13.83;11.57;;;;;;;20.00;47.12;102101.11;1661624;86;21189;-56
2021/03/30 08:34:41;;;;;;;12.20;10.50;;;;;;;20.05;48.18;102102.36;1636757;86;21621;-55
2021/03/30 08:37:11;;;;;;;12.98;10.23;;;;;;;20.48;47.87;102093.23;1661447;86;21159;-56
2021/03/30 08:39:40;;;;;;;14.15;10.13;;;;;;;20.77;47.11;102096.92;1658908;86;21340;-56
2021/03/30 08:42:19;;;;;;;13.83;9.98;;;;;;;21.05;46.87;102093.92;1644707;87;21305;-56
2021/03/30 08:44:58;;;;;;;13.95;10.23;;;;;;;21.14;46.66;102098.13;1645111;86;21359;-56
2021/03/30 08:47:38;;;;;;;12.98;10.45;;;;;;;21.36;45.33;102094.34;1624075;87;21285;-56
2021/03/30 08:50:23;;;;;;;12.43;10.27;;;;;;;21.39;44.50;102097.82;1645014;86;21640;-56
2021/03/30 08:52:57;;;;;;;11.60;10.03;;;;;;;21.10;41.38;102100.89;1644952;87;21277;-56
2021/03/30 08:55:33;;;;;;;11.48;9.95;;;;;;;20.45;42.68;102100.00;1645887;86;21167;-57
2021/03/30 08:58:02;;;;;;;14.00;10.20;;;;;;;20.27;43.76;102097.34;1644701;86;21159;-56
2021/03/30 09:00:30;;;;;;;13.95;9.45;;;;;;;20.34;44.48;102098.92;1645949;87;21174;-56
2021/03/30 09:03:03;;;;;;;11.18;9.98;;;;;;;20.49;43.74;102094.09;1634474;86;21311;-58
2021/03/30 09:05:39;;;;;;;11.28;9.98;;;;;;;20.72;44.40;102094.80;1630818;87;21211;-56
2021/03/30 09:08:10;;;;;;;11.97;9.43;;;;;;;21.04;44.23;102088.16;1649740;86;21171;-57
2021/03/30 09:10:38;;;;;;;11.83;8.80;;;;;;;21.35;43.52;102085.45;1649799;85;21590;-56
2021/03/30 09:13:15;;;;;;;12.17;9.67;;;;;;;21.65;41.80;102086.77;1666819;85;21165;-57
2021/03/30 09:15:44;;;;;;;12.20;9.70;;;;;;;21.83;41.20;102086.64;1666355;85;21206;-56
2021/03/30 09:18:26;;;;;;;12.80;10.48;;;;;;;21.88;40.21;102088.30;1666767;86;21605;-56
2021/03/30 09:21:09;;;;;;;11.60;9.58;;;;;;;21.85;39.87;102083.93;1667050;86;21199;-56
2021/03/30 09:23:38;;;;;;;12.53;10.40;;;;;;;21.87;39.52;102087.41;1660508;86;21600;-56
2021/03/30 09:26:14;;;;;;;12.70;10.20;;;;;;;22.02;39.80;102079.34;1666805;86;21215;-57
2021/03/30 09:28:43;;;;;;;12.95;10.32;;;;;;;22.16;40.08;102081.55;1667187;86;21166;-56
2021/03/30 09:31:12;;;;;;;10.63;9.33;;;;;;;22.23;38.27;102077.73;1666720;86;21218;-56
2021/03/30 09:33:40;;;;;;;11.83;9.65;;;;;;;22.17;36.07;102078.39;1666011;86;21569;-56
2021/03/30 09:36:12;;;;;;;11.50;9.93;;;;;;;22.09;36.03;102074.64;1642037;86;21154;-57
2021/03/30 09:38:52;;;;;;;9.70;8.65;;;;;;;22.12;37.08;102075.40;1666950;86;21180;-56
2021/03/30 09:41:41;;;;;;;11.25;9.68;;;;;;;22.26;37.25;102074.95;1661332;85;21325;-56
2021/03/30 09:44:10;;;;;;;10.32;9.03;;;;;;;22.43;36.98;102071.70;1609998;88;21139;-56
2021/03/30 09:46:41;;;;;;;9.95;8.95;;;;;;;22.48;35.21;102071.53;1609517;89;21171;-56
2021/03/30 09:49:09;;;;;;;15.05;9.53;;;;;;;22.39;36.69;102067.79;1614757;86;21592;-56
2021/03/30 09:51:39;;;;;;;12.18;9.70;;;;;;;22.38;36.26;102065.59;1642349;86;21659;-56
2021/03/30 09:54:33;;;;;;;9.80;8.80;;;;;;;22.37;36.43;102062.50;1632401;88;21223;-57
2021/03/30 09:57:06;;;;;;;12.20;8.13;;;;;;;22.38;37.07;102063.36;1617333;88;21171;-57
2021/03/30 09:59:34;;;;;;;9.43;8.15;;;;;;;22.32;36.46;102059.55;1608661;89;21332;-57
2021/03/30 10:02:02;;;;;;;9.65;7.65;;;;;;;22.24;35.04;102054.45;1585670;89;21183;-57
2021/03/30 10:04:34;;;;;;;10.08;7.75;;;;;;;22.07;34.04;102067.11;1586076;89;21622;-56
2021/03/30 10:07:17;;;;;;;8.70;7.40;;;;;;;21.84;32.56;102058.05;1610805;89;21175;-56
2021/03/30 10:10:09;;;;;;;8.93;7.08;;;;;;;21.52;32.15;102055.90;1642079;86;21162;-56
2021/03/30 10:12:54;;;;;;;9.08;7.47;;;;;;;21.06;31.69;102063.56;1667071;86;21194;-56
2021/03/30 10:15:37;;;;;;;10.45;7.40;;;;;;;20.74;34.16;102064.88;1666290;85;21151;-57
2021/03/30 10:18:06;;;;;;;9.75;6.78;;;;;;;20.76;34.25;102061.70;1651582;86;21693;-56
2021/03/30 10:20:47;;;;;;;8.88;6.62;;;;;;;20.99;35.84;102062.84;1636879;88;21217;-56
2021/03/30 10:23:25;;;;;;;8.83;6.47;;;;;;;21.39;34.86;102060.77;1613327;88;21626;-56
2021/03/30 10:25:55;;;;;;;9.73;6.33;;;;;;;21.83;34.60;102049.12;1636642;88;21171;-56
2021/03/30 10:28:32;;;;;;;7.58;6.37;;;;;;;22.24;34.44;102056.69;1650640;86;21135;-56
2021/03/30 10:31:06;;;;;;;7.05;5.78;;;;;;;22.52;34.05;102052.19;1666952;86;21631;-56
2021/03/30 10:33:40;;;;;;;9.13;7.25;;;;;;;22.83;33.29;102053.73;1666922;86;21195;-57
2021/03/30 10:36:14;;;;;;;8.33;7.15;;;;;;;23.08;33.57;102054.13;1664576;86;21213;-57
2021/03/30 10:39:10;;;;;;;8.00;6.28;;;;;;;23.35;33.50;102054.04;1667029;86;21304;-57
2021/03/30 10:41:42;;;;;;;7.20;6.12;;;;;;;23.64;32.64;102050.63;1666586;85;21328;-56
2021/03/30 10:44:17;;;;;;;8.25;6.72;;;;;;;23.83;31.89;102047.60;1666801;86;21300;-56
2021/03/30 10:46:48;;;;;;;10.58;6.83;;;;;;;23.90;32.01;102043.69;1656511;86;21217;-56
2021/03/30 10:49:16;;;;;;;8.85;7.40;;;;;;;23.74;31.04;102042.11;1634200;86;21666;-56
2021/03/30 10:51:45;;;;;;;12.33;7.58;;;;;;;23.61;31.15;102035.52;1636708;88;21610;-56
2021/03/30 10:54:19;;;;;;;11.93;7.00;;;;;;;23.57;31.70;102039.27;1636878;88;21713;-56
2021/03/30 10:56:44;;;;;;;11.73;6.78;;;;;;;23.61;32.00;102032.34;1609160;88;21172;-56
2021/03/30 10:59:15;;;;;;;11.60;6.45;;;;;;;23.78;32.22;102034.81;1609334;89;21208;-56
2021/03/30 11:01:43;;;;;;;13.30;7.20;;;;;;;24.04;31.73;102035.09;1609205;89;21208;-56
2021/03/30 11:04:11;;;;;;;9.23;6.20;;;;;;;24.21;31.38;102033.46;1635591;88;21163;-57
2021/03/30 11:06:42;;;;;;;9.20;6.53;;;;;;;24.15;31.29;102033.72;1609085;89;21163;-58
2021/03/30 11:09:09;;;;;;;9.93;6.35;;;;;;;23.98;29.92;102023.67;1635652;88;21594;-57
2021/03/30 11:11:39;;;;;;;8.15;6.28;;;;;;;23.82;30.02;102024.34;1635820;87;21159;-57
2021/03/30 11:14:08;;;;;;;11.95;7.42;;;;;;;23.76;30.24;102031.31;1635701;88;21186;-55
2021/03/30 11:16:36;;;;;;;9.28;6.83;;;;;;;23.58;30.23;102023.55;1635214;88;21198;-54
2021/03/30 11:19:06;;;;;;;7.55;6.55;;;;;;;23.37;30.27;102027.98;1609204;89;21662;-56
2021/03/30 11:21:34;;;;;;;9.95;6.20;;;;;;;23.15;29.85;102028.34;1636990;88;21627;-55
2021/03/30 11:24:04;;;;;;;13.25;6.53;;;;;;;22.93;30.85;102024.27;1635349;88;21216;-56
2021/03/30 11:26:32;;;;;;;20.40;6.30;;;;;;;22.84;31.29;102029.98;1609734;89;21581;-56
2021/03/30 11:29:01;;;;;;;22.27;6.33;;;;;;;22.81;31.22;102031.44;1609211;89;21635;-56
2021/03/30 11:31:45;;;;;;;35.15;7.78;;;;;;;22.75;29.43;102027.16;1635692;86;21579;-56
2021/03/30 11:34:09;;;;;;;43.92;8.13;;;;;;;22.70;31.13;102021.98;1633176;88;21638;-56
2021/03/30 11:36:28;;;;;;;52.13;9.90;;;;;;;22.87;32.38;102017.31;1633673;88;21559;-56
2021/03/30 11:38:56;;;;;;;218.07;22.07;;;;;;;23.11;32.23;102015.97;1635466;88;21288;-56